Time;durP1;ratioP1;P1;durP2;ratioP2;P2;SDS_P1;SDS_P2;PMS_P1;PMS_P2;Temp;Humidity;BMP_temperature;BMP_pressure;BME280_temperature;BME280_humidity;BME280_pressure;Samples;Min_cycle;Max_cycle;Signal;HPM_P1;HPM_P2
2022/10/03 00:00:39;;;;;;;4.45;2.33;;;;;;;10.15;79.89;96901.77;1722285;83;31809;-89
2022/10/03 00:03:44;;;;;;;;;;;;;;;10.16;79.81;96896.68;1724330;82;25819;-88
2022/10/03 00:06:46;;;;;;;9.33;2.52;;;;;;;10.16;79.97;96908.81;1722155;82;25704;-89
2022/10/03 00:09:33;;;;;;;10.03;3.02;;;;;;;10.14;79.84;96905.55;1722079;83;25784;-89
2022/10/03 00:12:19;;;;;;;6.45;2.30;;;;;;;10.13;79.70;96903.37;1721861;83;27454;-95
2022/10/03 00:15:13;;;;;;;6.40;2.30;;;;;;;10.11;79.77;96910.84;1721991;82;25767;-90
2022/10/03 00:17:57;;;;;;;6.22;2.40;;;;;;;10.10;79.73;96906.50;1721508;83;25678;-86
2022/10/03 00:20:46;;;;;;;5.28;2.05;;;;;;;10.08;79.74;96907.23;1720465;83;26164;-85
2022/10/03 00:23:39;;;;;;;8.25;2.50;;;;;;;10.08;79.74;96905.36;1721683;83;25919;-87
2022/10/03 00:26:27;;;;;;;6.78;2.83;;;;;;;10.08;79.88;96907.23;1721180;83;27367;-88
2022/10/03 00:29:34;;;;;;;10.40;3.65;;;;;;;10.07;80.01;96906.93;1721662;83;25800;-88
2022/10/03 00:32:39;;;;;;;6.58;2.58;;;;;;;10.03;79.97;96909.23;1659642;86;25781;-91
2022/10/03 00:35:43;;;;;;;5.10;2.42;;;;;;;9.98;80.06;96914.99;1662088;86;25918;-89
2022/10/03 00:38:32;;;;;;;6.72;2.70;;;;;;;9.97;80.13;96909.30;1598492;87;25865;-90
2022/10/03 00:41:26;;;;;;;6.10;2.83;;;;;;;9.95;80.15;96910.03;1659867;86;27418;-88
2022/10/03 00:44:07;;;;;;;6.60;2.45;;;;;;;9.96;80.11;96910.34;1626410;87;25844;-87
2022/10/03 00:47:03;;;;;;;6.15;2.47;;;;;;;9.97;80.04;96911.47;1692772;84;26402;-89
2022/10/03 00:50:12;;;;;;;6.65;2.33;;;;;;;9.98;80.03;96906.91;1693282;83;25958;-88
2022/10/03 00:52:57;;;;;;;8.95;2.77;;;;;;;9.99;80.05;96909.91;1693298;84;25989;-87
2022/10/03 00:55:43;;;;;;;9.28;2.55;;;;;;;9.97;80.03;96910.64;1693306;84;27358;-88
2022/10/03 00:58:38;;;;;;;6.30;2.33;;;;;;;9.98;79.91;96910.43;1692874;84;25845;-88
2022/10/03 01:01:25;;;;;;;6.53;2.27;;;;;;;10.00;79.94;96907.52;1690055;84;25831;-89
2022/10/03 01:04:15;;;;;;;8.08;2.30;;;;;;;10.03;79.99;96905.70;1693333;84;25779;-93
2022/10/03 01:07:08;;;;;;;7.45;2.42;;;;;;;10.02;79.81;96909.48;1693627;84;25803;-91
2022/10/03 01:09:50;;;;;;;;;;;;;;;10.03;79.70;96903.02;1760836;81;27358;-89
2022/10/03 01:12:58;;;;;;;7.97;2.83;;;;;;;10.02;79.72;96911.63;1757893;81;25664;-88
2022/10/03 01:15:51;;;;;;;10.08;2.92;;;;;;;9.98;79.65;96909.08;1756221;81;25724;-89
2022/10/03 01:18:31;;;;;;;8.20;2.90;;;;;;;9.97;79.68;96911.99;1664047;85;26393;-88
2022/10/03 01:21:38;;;;;;;4.33;2.75;;;;;;;9.94;79.73;96919.16;1670581;84;25337;-89
2022/10/03 01:24:45;;;;;;;8.05;3.83;;;;;;;9.95;79.79;96904.64;1733144;81;28210;-90
2022/10/03 01:27:34;;;;;;;7.37;3.60;;;;;;;9.92;79.97;96907.25;1756235;81;25769;-89
2022/10/03 01:30:22;;;;;;;5.90;3.20;;;;;;;9.89;79.87;96913.63;1756255;81;25727;-93
2022/10/03 01:33:09;;;;;;;4.55;2.98;;;;;;;9.91;79.80;96915.55;1756070;81;25824;-91
2022/10/03 01:35:47;;;;;;;7.85;3.12;;;;;;;9.92;79.79;96919.38;1756495;81;25732;-94
2022/10/03 01:38:28;;;;;;;11.10;3.83;;;;;;;9.91;79.87;96913.68;1723698;81;27387;-89
2022/10/03 01:41:32;;;;;;;5.40;3.40;;;;;;;9.91;79.83;96914.20;1756114;81;25760;-90
2022/10/03 01:44:22;;;;;;;7.83;3.25;;;;;;;9.92;79.83;96910.46;1703833;84;25833;-88
2022/10/03 01:47:14;;;;;;;10.55;3.17;;;;;;;9.89;79.69;96914.45;1756085;81;26213;-89
2022/10/03 01:49:49;;;;;;;8.00;3.25;;;;;;;9.88;79.57;96905.23;1693792;83;25759;-90
2022/10/03 01:52:36;;;;;;;6.55;2.95;;;;;;;9.87;79.51;96904.92;1688789;84;28487;-90
2022/10/03 01:55:23;;;;;;;6.17;2.85;;;;;;;9.87;79.48;96913.01;1702520;84;25774;-90
2022/10/03 01:58:08;;;;;;;7.03;3.10;;;;;;;9.83;79.40;96906.39;1702362;83;25825;-91
2022/10/03 02:00:58;;;;;;;7.67;3.30;;;;;;;9.79;79.34;96908.69;1702626;84;26111;-92
2022/10/03 02:03:45;;;;;;;7.45;3.02;;;;;;;9.78;79.30;96906.23;1702543;84;25811;-91
2022/10/03 02:06:46;;;;;;;7.85;3.55;;;;;;;9.80;79.31;96903.60;1701360;84;27393;-90
2022/10/03 02:09:46;;;;;;;6.55;3.25;;;;;;;9.79;79.26;96910.04;1702163;83;25795;-91
2022/10/03 02:12:40;;;;;;;10.05;3.58;;;;;;;9.80;79.30;96901.43;1669739;84;26340;-91
2022/10/03 02:15:33;;;;;;;6.65;3.58;;;;;;;9.75;79.43;96892.15;1702189;83;25738;-90
2022/10/03 02:18:22;;;;;;;6.50;3.08;;;;;;;9.73;79.32;96891.53;1698655;84;25832;-92
2022/10/03 02:21:00;;;;;;;8.80;3.42;;;;;;;9.73;79.34;96871.84;1698601;84;27378;-89
2022/10/03 02:23:37;;;;;;;5.45;2.92;;;;;;;9.76;79.40;96890.28;1695181;84;25772;-92
2022/10/03 02:26:52;;;;;;;9.80;3.80;;;;;;;9.72;79.51;96887.19;1698213;84;25766;-92
2022/10/03 02:30:02;;;;;;;7.92;2.77;;;;;;;9.70;79.56;96886.58;1698688;84;25802;-92
2022/10/03 02:33:24;;;;;;;6.75;3.22;;;;;;;9.74;79.45;96886.45;1659999;84;25989;-91
2022/10/03 02:36:26;;;;;;;6.08;2.80;;;;;;;9.77;79.36;96886.55;1698631;84;28180;-90
2022/10/03 02:39:09;;;;;;;5.65;2.85;;;;;;;9.78;79.46;96887.38;1675914;84;25785;-92
2022/10/03 02:42:08;;;;;;;6.95;3.05;;;;;;;9.80;79.44;96893.34;1698836;84;25936;-95
2022/10/03 02:44:59;;;;;;;9.98;3.17;;;;;;;9.81;79.44;96898.52;1671665;84;25887;-89
2022/10/03 02:48:03;;;;;;;13.90;3.80;;;;;;;9.84;79.53;96904.00;1698644;84;25750;-92
2022/10/03 02:51:13;;;;;;;6.22;3.50;;;;;;;9.86;79.60;96903.27;1698797;84;28024;-90
2022/10/03 02:54:07;;;;;;;9.33;3.58;;;;;;;9.86;79.62;96897.88;1698736;84;26040;-91
2022/10/03 02:56:48;;;;;;;6.22;3.30;;;;;;;9.89;79.64;96892.05;1698592;84;25691;-90
2022/10/03 02:59:35;;;;;;;8.83;3.70;;;;;;;9.92;79.65;96892.94;1698458;84;25731;-93
2022/10/03 03:02:48;;;;;;;7.78;3.80;;;;;;;9.93;79.57;96894.59;1698578;84;25785;-90
2022/10/03 03:05:43;;;;;;;6.95;3.22;;;;;;;9.94;79.57;96892.20;1698754;84;27386;-90
2022/10/03 03:08:27;;;;;;;10.65;4.00;;;;;;;9.94;79.56;96894.90;1698467;84;25828;-90
2022/10/03 03:11:36;;;;;;;9.13;3.67;;;;;;;9.94;79.59;96890.33;1698601;84;25292;-90
2022/10/03 03:14:37;;;;;;;11.50;3.77;;;;;;;9.96;79.58;96895.51;1698568;84;25998;-89
2022/10/03 03:17:26;;;;;;;9.98;3.70;;;;;;;9.94;79.65;96895.73;1698301;83;26468;-88
2022/10/03 03:20:28;;;;;;;8.15;4.25;;;;;;;9.97;79.57;96893.95;1698394;84;28301;-92
2022/10/03 03:23:18;;;;;;;8.90;3.60;;;;;;;9.99;79.52;96891.03;1698565;84;25730;-87
2022/10/03 03:26:01;;;;;;;10.45;3.67;;;;;;;10.01;79.46;96890.30;1698144;84;25743;-89
2022/10/03 03:28:57;;;;;;;13.08;4.20;;;;;;;10.03;79.40;96890.36;1698217;84;25918;-89
2022/10/03 03:31:44;;;;;;;10.30;3.75;;;;;;;10.05;79.37;96886.92;1698341;84;26464;-88
2022/10/03 03:34:28;;;;;;;12.90;3.17;;;;;;;10.05;79.15;96891.48;1664642;84;28173;-88
2022/10/03 03:37:26;;;;;;;8.48;3.35;;;;;;;10.01;79.27;96894.34;1698216;84;25380;-86
2022/10/03 03:40:10;;;;;;;10.48;3.60;;;;;;;9.97;79.19;96884.51;1698482;84;25821;-88
2022/10/03 03:43:02;;;;;;;10.55;3.62;;;;;;;9.97;79.07;96883.69;1698645;84;26179;-88
2022/10/03 03:46:11;;;;;;;10.03;4.03;;;;;;;9.98;79.07;96876.72;1697555;84;25785;-88
2022/10/03 03:49:01;;;;;;;8.40;3.47;;;;;;;10.00;79.02;96885.95;1698555;84;27356;-89
2022/10/03 03:51:44;;;;;;;9.45;3.90;;;;;;;10.01;79.00;96882.20;1698291;84;25757;-88
2022/10/03 03:54:49;;;;;;;10.43;3.85;;;;;;;9.99;79.03;96881.59;1698133;84;25710;-88
2022/10/03 03:57:36;;;;;;;9.48;3.15;;;;;;;9.97;79.13;96885.03;1698262;84;25795;-89
2022/10/03 04:00:16;;;;;;;4.95;3.40;;;;;;;9.97;79.12;96881.81;1698212;84;26018;-88
2022/10/03 04:03:17;;;;;;;9.63;3.95;;;;;;;9.97;79.20;96891.77;1698362;84;27462;-88
2022/10/03 04:06:02;;;;;;;11.20;4.72;;;;;;;9.93;79.29;96885.16;1698354;84;25799;-85
2022/10/03 04:08:37;;;;;;;8.75;3.35;;;;;;;9.91;79.32;96881.33;1698026;84;25768;-86
2022/10/03 04:11:30;;;;;;;7.62;3.60;;;;;;;9.91;79.33;96887.24;1698407;84;25982;-89
2022/10/03 04:14:11;;;;;;;8.98;3.72;;;;;;;9.90;79.24;96889.66;1697302;84;25803;-89
2022/10/03 04:20:10;;;;;;;7.50;3.45;;;;;;;9.91;79.29;96891.28;1695733;84;25780;-89
2022/10/03 04:23:06;;;;;;;9.90;3.58;;;;;;;9.94;79.28;96884.11;1698311;84;25742;-89
2022/10/03 04:25:45;;;;;;;9.60;3.77;;;;;;;9.93;79.34;96887.85;1698485;84;26446;-89
2022/10/03 04:28:38;;;;;;;12.23;3.92;;;;;;;9.94;79.27;96888.16;1696654;84;25741;-91
2022/10/03 04:31:37;;;;;;;11.50;3.90;;;;;;;9.93;79.34;96880.59;1696548;84;27451;-88
2022/10/03 04:34:24;;;;;;;10.05;4.00;;;;;;;9.95;79.37;96880.38;1698636;84;26012;-89
2022/10/03 04:37:16;;;;;;;8.73;3.80;;;;;;;9.93;79.32;96869.80;1698650;84;25302;-90
2022/10/03 04:39:50;;;;;;;11.70;4.42;;;;;;;9.95;79.25;96874.46;1698421;84;26188;-87
2022/10/03 04:42:36;;;;;;;8.48;3.60;;;;;;;9.98;79.31;96870.51;1698491;84;25904;-88
2022/10/03 04:45:28;;;;;;;9.68;3.55;;;;;;;10.00;79.28;96872.47;1698206;84;45444;-93
2022/10/03 04:48:18;;;;;;;9.70;3.42;;;;;;;10.02;79.12;96874.42;1697864;83;25777;-88
2022/10/03 04:51:02;;;;;;;8.68;3.80;;;;;;;10.03;79.17;96872.00;1698635;84;25761;-88
2022/10/03 04:53:55;;;;;;;10.40;3.55;;;;;;;10.08;79.23;96873.00;1698544;84;26250;-88
2022/10/03 04:56:46;;;;;;;12.20;3.67;;;;;;;10.07;79.13;96879.96;1694848;84;25873;-89
2022/10/03 05:00:07;;;;;;;11.73;4.03;;;;;;;10.04;79.12;96880.39;1698096;84;28267;-86
2022/10/03 05:02:48;;;;;;;15.23;6.28;;;;;;;10.00;79.31;96880.55;1698225;84;25781;-88
2022/10/03 05:05:36;;;;;;;16.12;8.18;;;;;;;9.96;79.38;96887.42;1698756;84;25948;-87
2022/10/03 05:08:29;;;;;;;13.95;6.70;;;;;;;9.94;79.46;96886.81;1664454;84;25465;-91
2022/10/03 05:11:13;;;;;;;19.60;9.70;;;;;;;9.93;79.44;96882.46;1698623;84;25694;-86
2022/10/03 05:13:54;;;;;;;13.08;7.58;;;;;;;9.92;79.43;96888.89;1698439;84;28736;-88
2022/10/03 05:16:42;;;;;;;10.98;5.78;;;;;;;9.89;79.36;96875.87;1697417;84;25749;-87
2022/10/03 05:19:37;;;;;;;11.00;4.40;;;;;;;9.89;79.48;96881.27;1689133;84;25713;-88
2022/10/03 05:22:41;;;;;;;10.35;3.45;;;;;;;9.91;79.47;96884.55;1689938;84;25729;-90
2022/10/03 05:25:28;;;;;;;6.33;3.62;;;;;;;9.90;79.40;96882.92;1690056;84;25778;-86
2022/10/03 05:28:19;;;;;;;5.62;2.83;;;;;;;9.90;79.20;96874.84;1689744;84;28233;-88
2022/10/03 05:31:24;;;;;;;5.72;3.58;;;;;;;9.89;79.06;96879.92;1689978;84;25665;-86
2022/10/03 05:34:34;;;;;;;8.65;4.20;;;;;;;9.91;79.06;96891.28;1689683;84;25717;-88
2022/10/03 05:37:23;;;;;;;11.63;3.62;;;;;;;9.91;78.98;96887.24;1689378;84;26395;-88
2022/10/03 05:40:13;;;;;;;9.43;3.02;;;;;;;9.92;79.05;96888.89;1690110;84;25683;-88
2022/10/03 05:43:03;;;;;;;9.38;3.33;;;;;;;9.90;79.10;96893.70;1690049;84;27373;-84
2022/10/03 05:45:50;;;;;;;8.58;3.15;;;;;;;9.91;78.98;96888.59;1690001;84;25706;-87
2022/10/03 05:49:03;;;;;;;8.33;2.58;;;;;;;9.93;79.01;96891.89;1689965;84;26378;-87
2022/10/03 05:52:06;;;;;;;7.30;2.65;;;;;;;9.94;78.95;96886.81;1689263;84;25675;-88
2022/10/03 05:55:03;;;;;;;7.80;3.00;;;;;;;9.92;78.86;96898.33;1690081;84;25699;-85
2022/10/03 05:58:09;;;;;;;6.53;3.02;;;;;;;9.89;79.02;96899.63;1690064;84;27378;-82
2022/10/03 06:01:01;;;;;;;7.72;2.85;;;;;;;9.90;78.94;96889.66;1689603;84;25686;-84
2022/10/03 06:04:06;;;;;;;5.00;2.60;;;;;;;9.87;79.08;96883.36;1690385;84;26323;-90
2022/10/03 06:06:44;;;;;;;3.85;2.25;;;;;;;9.84;78.97;96898.09;1690173;84;26329;-87
2022/10/03 06:09:24;;;;;;;7.78;2.75;;;;;;;9.84;79.11;96905.34;1688534;84;25670;-87
2022/10/03 06:12:02;;;;;;;6.47;2.45;;;;;;;9.85;79.14;96912.39;1687694;84;27385;-90
2022/10/03 06:14:48;;;;;;;3.33;2.20;;;;;;;9.82;79.12;96905.56;1690091;84;25674;-88
2022/10/03 06:17:43;;;;;;;4.17;2.25;;;;;;;9.79;79.12;96916.77;1692626;84;25691;-86
2022/10/03 06:20:39;;;;;;;5.90;2.50;;;;;;;9.80;79.12;96927.03;1698658;84;25726;-87
2022/10/03 06:23:32;;;;;;;9.25;3.45;;;;;;;9.81;79.22;96923.30;1698639;84;25674;-92
2022/10/03 06:26:27;;;;;;;6.20;2.42;;;;;;;9.79;79.32;96941.55;1698725;84;28067;-87
2022/10/03 06:29:15;;;;;;;7.08;2.85;;;;;;;9.77;79.41;96945.02;1698566;84;25746;-89
2022/10/03 06:32:15;;;;;;;7.25;3.02;;;;;;;9.77;79.51;96951.23;1698373;84;25864;-88
2022/10/03 06:34:56;;;;;;;5.17;2.37;;;;;;;9.80;79.44;96947.25;1698664;84;26350;-87
2022/10/03 06:38:05;;;;;;;6.42;2.25;;;;;;;9.82;79.49;96948.70;1698595;84;25765;-88
2022/10/03 06:40:58;;;;;;;3.95;1.90;;;;;;;9.82;79.40;96945.17;1697982;84;27377;-87
2022/10/03 06:44:04;;;;;;;6.30;2.50;;;;;;;9.81;79.33;96957.00;1698417;84;25975;-88
2022/10/03 06:46:48;;;;;;;5.37;2.33;;;;;;;9.82;79.29;96949.22;1698452;84;25738;-86
2022/10/03 06:49:46;;;;;;;5.85;2.20;;;;;;;9.86;79.31;96945.05;1698483;84;26133;-86
2022/10/03 06:52:27;;;;;;;9.48;2.55;;;;;;;9.84;78.92;96953.88;1663096;85;25835;-88
2022/10/03 06:55:36;;;;;;;5.97;2.52;;;;;;;9.82;78.84;96953.26;1662927;86;28118;-92
2022/10/03 06:58:18;;;;;;;4.05;2.15;;;;;;;9.83;78.79;96961.13;1583784;90;25927;-84
2022/10/03 07:01:25;;;;;;;9.23;2.30;;;;;;;9.85;78.73;96961.75;1652794;86;33120;-87
2022/10/03 07:04:17;;;;;;;7.03;2.30;;;;;;;9.87;78.66;96960.19;1721422;83;25819;-87
2022/10/03 07:07:28;;;;;;;10.00;2.67;;;;;;;9.87;78.49;96964.23;1721978;83;25748;-85
2022/10/03 07:10:30;;;;;;;3.85;2.02;;;;;;;9.89;78.40;96974.28;1722218;83;27379;-85
2022/10/03 07:13:17;;;;;;;7.60;2.00;;;;;;;9.88;78.30;96969.93;1722190;83;25921;-86
2022/10/03 07:16:04;;;;;;;6.85;2.30;;;;;;;9.86;78.07;96962.58;1718144;83;25897;-85
2022/10/03 07:18:57;;;;;;;7.58;2.65;;;;;;;9.82;77.91;96972.12;1713695;83;25725;-89
2022/10/03 07:22:07;;;;;;;5.78;2.00;;;;;;;9.82;78.01;96972.12;1710162;83;25707;-88
2022/10/03 07:25:02;;;;;;;8.63;2.27;;;;;;;9.83;77.91;96977.83;1710518;83;27397;-88
2022/10/03 07:28:12;;;;;;;7.37;2.30;;;;;;;9.85;77.91;96971.70;1709517;83;25953;-87
2022/10/03 07:31:19;;;;;;;6.25;2.52;;;;;;;9.89;77.85;96970.23;1727023;83;26345;-88
2022/10/03 07:34:19;;;;;;;6.95;3.35;;;;;;;9.94;77.89;96964.48;1727644;83;26186;-88
2022/10/03 07:40:07;;;;;;;11.97;2.62;;;;;;;10.06;77.37;96967.30;1727647;83;27425;-86
2022/10/03 07:43:05;;;;;;;8.78;2.77;;;;;;;10.10;77.21;96982.01;1727862;82;25801;-87
2022/10/03 07:45:44;;;;;;;12.20;2.05;;;;;;;10.11;77.06;96970.18;1727920;83;26018;-86
2022/10/03 07:48:49;;;;;;;6.35;2.52;;;;;;;10.10;76.75;96967.17;1727763;83;26352;-90
2022/10/03 07:51:42;;;;;;;5.10;2.47;;;;;;;10.07;76.74;96963.56;1676361;83;25822;-88
2022/10/03 07:54:20;;;;;;;7.25;2.00;;;;;;;10.10;76.79;96969.88;1728112;83;27413;-87
2022/10/03 07:57:11;;;;;;;4.92;1.87;;;;;;;10.10;76.67;96973.91;1727987;82;25830;-86
2022/10/03 08:00:09;;;;;;;5.85;2.52;;;;;;;10.13;76.57;96969.96;1727790;83;25438;-83
2022/10/03 08:03:06;;;;;;;3.65;1.72;;;;;;;10.13;76.43;96978.88;1727824;83;25703;-87
2022/10/03 08:06:10;;;;;;;8.28;2.15;;;;;;;10.15;76.42;96974.06;1728106;82;25831;-86
2022/10/03 08:09:15;;;;;;;8.03;2.25;;;;;;;10.16;76.21;96974.38;1728036;82;26880;-88
2022/10/03 08:12:02;;;;;;;6.12;1.98;;;;;;;10.18;76.20;96976.37;1727112;83;25915;-89
2022/10/03 08:14:46;;;;;;;6.87;1.70;;;;;;;10.18;76.17;96967.42;1727816;83;25691;-86
2022/10/03 08:17:33;;;;;;;8.35;3.90;;;;;;;10.17;76.18;96969.81;1728517;81;25425;-82
2022/10/03 08:20:14;;;;;;;5.30;2.40;;;;;;;10.20;76.35;96974.80;1756671;81;25756;-88
2022/10/03 08:23:29;;;;;;;3.70;2.27;;;;;;;10.21;76.34;96976.45;1755594;81;27404;-83
2022/10/03 08:26:21;;;;;;;9.10;2.30;;;;;;;10.20;76.16;96975.63;1757378;81;26082;-82
2022/10/03 08:29:07;;;;;;;5.35;1.50;;;;;;;10.19;76.04;96971.28;1756118;81;25752;-86
2022/10/03 08:32:08;;;;;;;3.75;1.67;;;;;;;10.21;75.92;96961.09;1757419;81;25803;-89
2022/10/03 08:35:11;;;;;;;5.53;2.02;;;;;;;10.28;75.92;96978.05;1757550;81;25562;-86
2022/10/03 08:38:09;;;;;;;5.80;1.62;;;;;;;10.37;75.77;96976.75;1757606;81;26529;-83
2022/10/03 08:41:06;;;;;;;4.42;1.80;;;;;;;10.39;75.45;96968.41;1756743;81;25767;-86
2022/10/03 08:43:54;;;;;;;5.40;2.12;;;;;;;10.41;75.35;96976.59;1755469;81;25746;-83
2022/10/03 08:47:01;;;;;;;6.95;1.90;;;;;;;10.44;75.23;96961.31;1757107;81;25922;-84
2022/10/03 08:50:09;;;;;;;6.75;2.17;;;;;;;10.47;75.08;96970.84;1757403;81;26306;-85
2022/10/03 08:53:23;;;;;;;5.85;2.20;;;;;;;10.49;74.99;96966.58;1757503;81;28119;-86
2022/10/03 08:56:34;;;;;;;6.00;2.20;;;;;;;10.53;74.86;96962.38;1757352;81;25766;-88
2022/10/03 08:59:19;;;;;;;5.55;1.98;;;;;;;10.59;74.94;96961.50;1757384;81;25763;-85
2022/10/03 09:02:26;;;;;;;8.38;1.90;;;;;;;10.65;74.96;96958.73;1751446;81;26568;-85
2022/10/03 09:05:35;;;;;;;6.03;2.40;;;;;;;10.71;74.54;96957.85;1757566;81;26207;-85
2022/10/03 09:08:28;;;;;;;4.05;2.00;;;;;;;10.81;74.62;96954.11;1757591;81;28167;-86
2022/10/03 09:11:18;;;;;;;9.13;2.72;;;;;;;10.89;74.41;96954.33;1753369;81;25914;-89
2022/10/03 09:13:56;;;;;;;8.38;2.62;;;;;;;10.97;74.16;96943.77;1757691;81;25728;-82
2022/10/03 09:16:50;;;;;;;5.25;2.30;;;;;;;11.02;73.84;96942.03;1757654;81;25806;-82
2022/10/03 09:20:06;;;;;;;5.97;2.02;;;;;;;11.04;73.80;96954.79;1755262;81;25763;-85
2022/10/03 09:22:59;;;;;;;6.78;2.50;;;;;;;11.02;73.93;96962.29;1755954;81;27413;-85
2022/10/03 09:26:14;;;;;;;6.53;1.98;;;;;;;10.94;74.19;96963.12;1755902;81;25801;-88
2022/10/03 09:29:21;;;;;;;3.87;1.70;;;;;;;10.75;74.29;96996.83;1755626;81;26020;-83
2022/10/03 09:32:23;;;;;;;3.98;1.82;;;;;;;10.63;74.58;96988.33;1756171;81;26227;-84
2022/10/03 09:35:27;;;;;;;4.75;1.70;;;;;;;10.51;74.98;96985.53;1756136;81;25823;-83
2022/10/03 09:38:29;;;;;;;2.45;1.50;;;;;;;10.45;75.21;96996.70;1756075;81;27397;-83
2022/10/03 09:41:28;;;;;;;3.50;2.08;;;;;;;10.41;75.70;96998.70;1756098;81;25789;-83
2022/10/03 09:44:29;;;;;;;2.77;1.85;;;;;;;10.38;75.80;96997.29;1669593;84;25778;-86
2022/10/03 09:47:34;;;;;;;3.72;1.57;;;;;;;10.40;75.92;97010.53;1747431;81;25858;-84
2022/10/03 09:50:28;;;;;;;5.05;2.00;;;;;;;10.37;76.02;97009.12;1755911;81;26675;-85
2022/10/03 09:53:19;;;;;;;4.03;2.17;;;;;;;10.37;76.09;97003.73;1754788;81;27385;-85
2022/10/03 09:56:27;;;;;;;4.25;2.00;;;;;;;10.30;75.98;97001.59;1755451;81;25728;-85
2022/10/03 09:59:49;;;;;;;5.47;2.35;;;;;;;10.22;76.23;97004.56;1755899;81;25256;-95
2022/10/03 10:02:36;;;;;;;3.70;2.70;;;;;;;10.11;76.52;97004.72;1755966;81;25685;-84
2022/10/03 10:05:32;;;;;;;4.42;2.65;;;;;;;10.08;76.98;97011.06;1756208;81;25701;-86
2022/10/03 10:08:48;;;;;;;7.00;3.25;;;;;;;9.95;77.34;97003.05;1755858;81;28192;-86
2022/10/03 10:11:49;;;;;;;6.40;3.40;;;;;;;9.95;77.67;97001.70;1755725;81;25768;-86
2022/10/03 10:14:39;;;;;;;3.75;2.00;;;;;;;10.02;78.12;96995.21;1673993;84;25749;-85
2022/10/03 10:17:45;;;;;;;4.03;2.02;;;;;;;10.14;77.95;96994.02;1701743;83;26557;-89
2022/10/03 10:20:36;;;;;;;7.95;2.60;;;;;;;10.19;77.85;96990.16;1685454;83;25721;-87
2022/10/03 10:23:51;;;;;;;4.67;2.20;;;;;;;10.24;78.03;96993.04;1684812;85;28183;-89
2022/10/03 10:26:44;;;;;;;4.28;2.33;;;;;;;10.25;78.07;96993.34;1685808;85;25795;-93
2022/10/03 10:29:37;;;;;;;4.47;2.62;;;;;;;10.28;78.01;96996.93;1653231;85;25840;-89
2022/10/03 10:32:42;;;;;;;4.05;2.50;;;;;;;10.28;78.14;96997.45;1685373;85;26012;-90
2022/10/03 10:35:49;;;;;;;7.97;2.40;;;;;;;10.26;78.42;96992.83;1685482;85;25825;-89
2022/10/03 10:38:29;;;;;;;7.55;3.20;;;;;;;10.20;78.50;96988.29;1685132;84;27384;-93
2022/10/03 10:41:30;;;;;;;3.35;2.40;;;;;;;10.21;78.74;96988.08;1683768;85;25803;-93
2022/10/03 10:44:26;;;;;;;5.87;2.20;;;;;;;10.24;78.70;96993.04;1685348;85;25763;-90
2022/10/03 10:47:27;;;;;;;2.92;2.02;;;;;;;10.24;78.85;96980.90;1655771;85;25906;-92
2022/10/03 10:50:19;;;;;;;4.20;2.42;;;;;;;10.22;78.83;96984.33;1685208;85;25789;-88
2022/10/03 10:53:06;;;;;;;;;;;;;;;10.24;78.94;96976.03;1687652;84;27424;-86
2022/10/03 10:56:03;;;;;;;6.80;3.40;;;;;;;10.24;79.09;96979.55;1685219;85;25813;-93
2022/10/03 10:59:10;;;;;;;5.17;3.40;;;;;;;10.28;79.21;96982.61;1682861;85;25711;-86
2022/10/03 11:02:00;;;;;;;5.78;3.22;;;;;;;10.30;79.29;96986.75;1685132;85;26074;-88
2022/10/03 11:04:59;;;;;;;5.17;2.62;;;;;;;10.36;79.24;96977.80;1682612;85;25754;-89
2022/10/03 11:07:54;;;;;;;2.80;1.90;;;;;;;10.42;79.16;96976.89;1685278;85;27402;-89
2022/10/03 11:11:02;;;;;;;2.77;1.50;;;;;;;10.44;79.00;96973.98;1685211;85;25813;-87
2022/10/03 11:14:11;;;;;;;1.60;1.50;;;;;;;10.48;78.83;96977.07;1685433;85;25740;-90
2022/10/03 11:17:12;;;;;;;2.67;1.70;;;;;;;10.40;78.56;96984.91;1685279;85;25734;-89
2022/10/03 11:20:29;;;;;;;2.10;1.55;;;;;;;10.35;78.49;96981.53;1691754;84;25915;-90
2022/10/03 11:23:33;;;;;;;2.75;1.80;;;;;;;10.34;78.48;96982.58;1698708;84;27389;-85
2022/10/03 11:26:56;;;;;;;2.42;1.70;;;;;;;10.32;78.55;96986.02;1698674;84;26289;-88
2022/10/03 11:30:02;;;;;;;2.77;1.70;;;;;;;10.31;78.47;96983.01;1698573;84;25805;-89
2022/10/03 11:32:56;;;;;;;3.30;1.98;;;;;;;10.33;78.65;96982.27;1698616;84;26069;-89
2022/10/03 11:36:07;;;;;;;2.70;2.20;;;;;;;10.30;78.68;96985.41;1662687;85;26252;-92
2022/10/03 11:38:57;;;;;;;3.50;2.35;;;;;;;10.31;78.78;96984.36;1663384;86;27605;-85
2022/10/03 11:41:41;;;;;;;2.75;2.40;;;;;;;10.31;78.84;96985.70;1662404;86;25810;-85
2022/10/03 11:44:15;;;;;;;4.95;2.10;;;;;;;10.29;78.90;96989.14;1662673;86;25905;-85
2022/10/03 11:47:13;;;;;;;4.28;2.02;;;;;;;10.24;79.15;96981.42;1663125;86;25945;-88
2022/10/03 11:49:45;;;;;;;4.08;2.37;;;;;;;10.20;79.23;96983.72;1663060;86;25873;-87
2022/10/03 11:52:47;;;;;;;5.75;2.25;;;;;;;10.14;79.47;96991.84;1660237;86;28200;-86
2022/10/03 11:55:43;;;;;;;3.00;2.33;;;;;;;10.11;79.65;96999.84;1601165;89;25909;-91
2022/10/03 11:58:57;;;;;;;5.33;2.67;;;;;;;10.07;79.65;96993.22;1592701;90;25815;-86
2022/10/03 12:01:34;;;;;;;6.40;3.02;;;;;;;10.07;79.82;96996.75;1654158;86;25745;-87
2022/10/03 12:04:26;;;;;;;3.77;2.75;;;;;;;10.06;80.16;97006.40;1654221;86;25850;-86
2022/10/03 12:10:19;;;;;;;5.70;2.80;;;;;;;10.03;80.17;97006.83;1653875;86;25824;-88
2022/10/03 12:12:51;;;;;;;4.35;2.62;;;;;;;10.01;80.45;97006.24;1638608;86;25303;-96
2022/10/03 12:15:33;;;;;;;7.08;3.10;;;;;;;10.00;80.52;97007.28;1639829;87;25987;-85
2022/10/03 12:18:15;;;;;;;6.28;3.10;;;;;;;10.03;80.66;97001.43;1639440;87;25917;-87
2022/10/03 12:21:05;;;;;;;3.70;2.80;;;;;;;10.02;80.77;97000.61;1639401;86;27405;-87
2022/10/03 12:23:49;;;;;;;7.65;3.12;;;;;;;10.02;80.75;97011.94;1639238;87;25860;-90
2022/10/03 12:26:29;;;;;;;5.50;3.20;;;;;;;10.02;80.85;97006.55;1639513;87;26466;-83
2022/10/03 12:28:59;;;;;;;4.85;2.90;;;;;;;10.03;80.90;97010.34;1669798;81;25807;-88
2022/10/03 12:31:43;;;;;;;6.35;3.52;;;;;;;10.06;80.95;97011.27;1757632;81;25736;-91
2022/10/03 12:34:39;;;;;;;6.92;3.65;;;;;;;10.10;80.93;97011.67;1757511;81;28173;-90
2022/10/03 12:37:37;;;;;;;4.87;3.60;;;;;;;10.10;81.08;97014.37;1747984;81;26288;-87
2022/10/03 12:40:19;;;;;;;5.50;3.40;;;;;;;10.09;81.08;97018.11;1756959;81;25789;-91
2022/10/03 12:43:15;;;;;;;4.30;3.20;;;;;;;10.07;81.09;97022.88;1757034;81;25774;-85
2022/10/03 12:46:00;;;;;;;8.68;3.60;;;;;;;10.04;81.11;97017.92;1757608;81;25893;-84
2022/10/03 12:48:54;;;;;;;4.37;3.22;;;;;;;10.03;81.20;97022.48;1756964;81;27353;-84
2022/10/03 12:51:43;;;;;;;5.20;2.85;;;;;;;10.02;81.28;97030.81;1755902;81;26100;-83
2022/10/03 12:54:35;;;;;;;5.22;2.95;;;;;;;10.00;81.25;97028.34;1756679;81;25732;-88
2022/10/03 12:57:43;;;;;;;4.73;2.73;;;;;;;9.93;81.58;97052.31;1757694;81;25901;-86
2022/10/03 13:00:26;;;;;;;2.52;2.00;;;;;;;9.89;81.54;97061.89;1757162;81;26302;-86
2022/10/03 13:03:10;;;;;;;3.02;2.40;;;;;;;9.87;81.50;97059.93;1757181;81;27414;-84
2022/10/03 13:06:20;;;;;;;3.27;1.90;;;;;;;9.87;81.48;97053.19;1740819;81;25930;-89
2022/10/03 13:09:04;;;;;;;5.85;2.33;;;;;;;9.86;81.77;97059.63;1757512;81;25663;-84
2022/10/03 13:11:51;;;;;;;3.58;2.10;;;;;;;9.88;81.70;97059.72;1757545;81;25948;-86
2022/10/03 13:15:03;;;;;;;5.75;2.20;;;;;;;9.85;81.56;97063.36;1746542;81;25248;-88
2022/10/03 13:18:02;;;;;;;3.22;2.25;;;;;;;9.88;81.48;97065.63;1757584;81;27367;-85
2022/10/03 13:20:39;;;;;;;3.60;2.80;;;;;;;9.90;81.27;97064.34;1757110;81;26051;-86
2022/10/03 13:23:24;;;;;;;3.17;2.67;;;;;;;9.91;81.44;97070.57;1757499;81;25652;-85
2022/10/03 13:26:08;;;;;;;5.97;3.30;;;;;;;9.89;81.55;97061.89;1757562;81;26207;-85
2022/10/03 13:28:58;;;;;;;5.45;2.70;;;;;;;9.91;81.65;97068.70;1757598;81;25695;-85
2022/10/03 13:31:34;;;;;;;4.12;2.42;;;;;;;9.95;81.68;97062.37;1757473;81;27505;-85
2022/10/03 13:34:06;;;;;;;7.28;2.70;;;;;;;10.00;81.62;97055.82;1757556;81;25881;-87
2022/10/03 13:37:08;;;;;;;4.00;2.33;;;;;;;10.03;81.54;97058.06;1756801;81;25654;-86
2022/10/03 13:39:52;;;;;;;5.17;2.90;;;;;;;10.04;81.47;97057.02;1757083;81;25767;-86
2022/10/03 13:42:30;;;;;;;3.72;2.50;;;;;;;10.06;81.61;97047.67;1757561;81;25774;-88
2022/10/03 13:45:02;;;;;;;3.47;2.58;;;;;;;10.09;81.40;97049.12;1757060;81;27431;-87
2022/10/03 13:47:43;;;;;;;4.60;2.33;;;;;;;10.08;81.38;97058.25;1757351;81;25687;-94
2022/10/03 13:50:18;;;;;;;5.10;2.50;;;;;;;10.09;81.45;97048.59;1757452;81;25649;-88